createdAt,value
2017-07-26T00:00:33.215Z,16.80
2017-07-26T00:03:00.999Z,16.90
2017-07-26T00:05:28.512Z,16.90
2017-07-26T00:07:56.037Z,16.90
2017-07-26T00:10:23.567Z,16.90
2017-07-26T00:12:51.089Z,16.90
2017-07-26T00:15:18.894Z,16.90
2017-07-26T00:17:46.411Z,16.80
2017-07-26T00:20:13.934Z,16.90
2017-07-26T00:22:41.458Z,16.90
2017-07-26T00:25:08.974Z,16.80
2017-07-26T00:27:36.763Z,16.80
2017-07-26T00:30:04.273Z,16.80
2017-07-26T00:32:31.799Z,16.80
2017-07-26T00:34:59.330Z,16.80
2017-07-26T00:37:26.847Z,16.80
2017-07-26T00:39:54.657Z,16.70
2017-07-26T00:42:22.155Z,16.70
2017-07-26T00:44:49.661Z,16.70
2017-07-26T00:47:17.201Z,16.70
2017-07-26T00:49:44.716Z,16.70
2017-07-26T00:52:12.506Z,16.70
2017-07-26T00:54:40.029Z,16.70
2017-07-26T00:57:07.533Z,16.70
2017-07-26T00:59:35.065Z,16.60
2017-07-26T01:02:02.584Z,16.60
2017-07-26T01:04:30.364Z,16.60
2017-07-26T01:06:57.877Z,16.60
2017-07-26T01:09:25.400Z,16.60
2017-07-26T01:11:52.919Z,16.60
2017-07-26T01:14:20.441Z,16.60
2017-07-26T01:16:48.226Z,16.60
2017-07-26T01:19:15.733Z,16.70
2017-07-26T01:21:43.243Z,16.70
2017-07-26T01:24:10.758Z,16.70
2017-07-26T01:26:38.262Z,16.60
2017-07-26T01:29:06.063Z,16.60
2017-07-26T01:31:33.575Z,16.50
2017-07-26T01:34:01.099Z,16.50
2017-07-26T01:36:28.618Z,16.50
2017-07-26T01:38:56.127Z,16.50
2017-07-26T01:41:23.902Z,16.50
2017-07-26T01:43:51.417Z,16.40
2017-07-26T01:46:18.962Z,16.40
2017-07-26T01:48:46.654Z,16.40
2017-07-26T01:51:14.161Z,16.30
2017-07-26T01:53:41.964Z,16.30
2017-07-26T01:56:09.500Z,16.30
2017-07-26T01:58:37.070Z,16.30
2017-07-26T02:01:04.618Z,16.30
2017-07-26T02:03:32.126Z,16.30
2017-07-26T02:05:59.918Z,16.20
2017-07-26T02:08:27.465Z,16.20
2017-07-26T02:10:54.978Z,16.10
2017-07-26T02:13:22.521Z,16.10
2017-07-26T02:15:50.034Z,16.10
2017-07-26T02:18:17.844Z,16.10
2017-07-26T02:20:45.366Z,16.20
2017-07-26T02:23:12.878Z,16.20
2017-07-26T02:25:40.420Z,16.10
2017-07-26T02:28:07.953Z,16.00
2017-07-26T02:30:35.750Z,16.00
2017-07-26T02:33:03.279Z,16.00
2017-07-26T02:35:30.801Z,16.00
2017-07-26T02:37:58.331Z,16.00
2017-07-26T02:40:25.855Z,16.00
2017-07-26T02:42:53.655Z,16.10
2017-07-26T02:45:21.176Z,16.00
2017-07-26T02:47:48.696Z,16.00
2017-07-26T02:50:16.218Z,16.00
2017-07-26T02:52:43.747Z,16.00
2017-07-26T02:55:11.551Z,16.00
2017-07-26T02:57:39.086Z,15.90
2017-07-26T03:00:06.599Z,15.90
2017-07-26T03:02:34.131Z,15.90
2017-07-26T03:05:01.645Z,15.80
2017-07-26T03:07:29.460Z,15.80
2017-07-26T03:09:56.982Z,15.80
2017-07-26T03:12:24.507Z,15.70
2017-07-26T03:14:52.039Z,15.70
2017-07-26T03:17:19.545Z,15.70
2017-07-26T03:19:47.722Z,15.70
2017-07-26T03:22:15.261Z,15.60
2017-07-26T03:24:42.801Z,15.60
2017-07-26T03:27:10.320Z,15.60
2017-07-26T03:29:37.838Z,15.60
2017-07-26T03:32:05.647Z,15.70
2017-07-26T03:34:33.173Z,15.70
2017-07-26T03:37:00.708Z,15.70
2017-07-26T03:39:28.294Z,15.70
2017-07-26T03:41:55.829Z,15.70
2017-07-26T03:44:23.631Z,15.60
2017-07-26T03:46:51.151Z,15.60
2017-07-26T03:49:18.668Z,15.60
2017-07-26T03:51:46.212Z,15.70
2017-07-26T03:54:13.754Z,15.70
2017-07-26T03:56:41.552Z,15.60
2017-07-26T03:59:09.089Z,15.60
2017-07-26T04:01:36.631Z,15.60
2017-07-26T04:04:04.160Z,15.60
2017-07-26T04:06:31.686Z,15.60
2017-07-26T04:08:59.478Z,15.60
2017-07-26T04:11:26.991Z,15.60
2017-07-26T04:13:54.507Z,15.70
2017-07-26T04:16:22.044Z,15.70
2017-07-26T04:18:49.574Z,15.70
2017-07-26T04:21:17.379Z,15.70
2017-07-26T04:23:44.886Z,15.70
2017-07-26T04:26:12.395Z,15.70
2017-07-26T04:28:39.919Z,15.70
2017-07-26T04:31:07.466Z,15.70
2017-07-26T04:33:35.255Z,15.70
2017-07-26T04:36:02.781Z,15.70
2017-07-26T04:38:30.298Z,15.70
2017-07-26T04:40:57.822Z,15.70
2017-07-26T04:43:25.350Z,15.60
2017-07-26T04:45:53.141Z,15.60
2017-07-26T04:48:20.662Z,15.60
2017-07-26T04:50:48.175Z,15.60
2017-07-26T04:53:15.721Z,15.60
2017-07-26T04:55:43.307Z,15.60
2017-07-26T04:58:11.112Z,15.60
2017-07-26T05:00:38.630Z,15.60
2017-07-26T05:03:06.147Z,15.60
2017-07-26T05:05:33.682Z,15.60
2017-07-26T05:08:01.189Z,15.60
2017-07-26T05:10:29.023Z,15.60
2017-07-26T05:12:56.538Z,15.60
2017-07-26T05:15:24.060Z,15.60
2017-07-26T05:17:51.614Z,15.60
2017-07-26T05:20:19.139Z,15.70
2017-07-26T05:22:46.955Z,15.80
2017-07-26T05:25:14.472Z,15.70
2017-07-26T05:27:41.983Z,15.70
2017-07-26T05:30:09.513Z,15.70
2017-07-26T05:32:37.043Z,15.70
2017-07-26T05:35:04.852Z,15.70
2017-07-26T05:37:32.386Z,15.70
2017-07-26T05:39:59.909Z,15.80
2017-07-26T05:42:27.525Z,15.80
2017-07-26T05:44:55.063Z,15.80
2017-07-26T05:47:22.603Z,15.80
2017-07-26T05:49:50.177Z,15.80
2017-07-26T05:52:17.706Z,15.80
2017-07-26T05:54:45.238Z,15.80
2017-07-26T05:57:12.799Z,15.80
2017-07-26T05:59:40.344Z,15.80
2017-07-26T06:02:07.871Z,15.80
2017-07-26T06:04:35.672Z,15.90
2017-07-26T06:07:03.215Z,15.90
2017-07-26T06:09:30.752Z,15.90
2017-07-26T06:11:58.556Z,15.90
2017-07-26T06:14:26.076Z,15.90
2017-07-26T06:16:53.683Z,15.90
2017-07-26T06:19:21.206Z,15.90
2017-07-26T06:21:49.526Z,15.90
2017-07-26T06:24:17.328Z,15.90
2017-07-26T06:26:44.867Z,15.90
2017-07-26T06:29:12.374Z,15.90
2017-07-26T06:31:39.889Z,15.90
2017-07-26T06:34:07.407Z,16.00
2017-07-26T06:36:35.229Z,16.00
2017-07-26T06:39:02.748Z,16.10
2017-07-26T06:41:30.249Z,16.10
2017-07-26T06:43:57.799Z,16.20
2017-07-26T06:46:25.326Z,16.20
2017-07-26T06:48:53.114Z,16.30
2017-07-26T06:51:20.626Z,16.30
2017-07-26T06:53:48.128Z,16.30
2017-07-26T06:56:15.673Z,16.30
2017-07-26T06:58:43.203Z,16.30
2017-07-26T07:01:11.021Z,16.40
2017-07-26T07:03:38.535Z,16.40
2017-07-26T07:06:06.051Z,16.30
2017-07-26T07:08:33.569Z,16.30
2017-07-26T07:11:01.087Z,16.40
2017-07-26T07:13:28.893Z,16.30
2017-07-26T07:15:56.420Z,16.30
2017-07-26T07:18:23.936Z,16.30
2017-07-26T07:20:51.466Z,16.40
2017-07-26T07:23:19.001Z,16.40
2017-07-26T07:25:46.792Z,16.40
2017-07-26T07:28:14.322Z,16.40
2017-07-26T07:30:41.823Z,16.40
2017-07-26T07:33:09.346Z,16.40
2017-07-26T07:35:36.863Z,16.40
2017-07-26T07:38:04.670Z,16.40
2017-07-26T07:40:32.205Z,16.50
2017-07-26T07:42:59.743Z,16.40
2017-07-26T07:45:27.287Z,16.40
2017-07-26T07:47:54.787Z,16.40
2017-07-26T07:50:22.590Z,16.40
2017-07-26T07:52:50.098Z,16.40
2017-07-26T07:55:17.611Z,16.40
2017-07-26T07:57:45.155Z,16.40
2017-07-26T08:00:12.661Z,16.50
2017-07-26T08:02:40.439Z,16.40
2017-07-26T08:05:07.956Z,16.50
2017-07-26T08:07:35.495Z,16.50
2017-07-26T08:10:03.083Z,16.50
2017-07-26T08:12:30.603Z,16.60
2017-07-26T08:14:58.422Z,16.60
2017-07-26T08:17:28.365Z,16.60
2017-07-26T08:19:56.237Z,16.60
2017-07-26T08:22:25.198Z,16.60
2017-07-26T08:24:55.060Z,16.60
2017-07-26T08:27:22.924Z,16.60
2017-07-26T08:29:50.451Z,16.70
2017-07-26T08:32:17.978Z,16.70
2017-07-26T08:34:45.528Z,16.80
2017-07-26T08:37:13.038Z,16.70
2017-07-26T08:39:40.827Z,16.80
2017-07-26T08:42:08.378Z,16.80
2017-07-26T08:44:35.890Z,16.80
2017-07-26T08:47:03.425Z,16.80
2017-07-26T08:49:30.945Z,16.80
2017-07-26T08:51:58.743Z,16.80
2017-07-26T08:54:26.253Z,16.80
2017-07-26T08:56:53.759Z,16.80
2017-07-26T08:59:21.283Z,16.80
2017-07-26T09:01:48.812Z,16.80
2017-07-26T09:04:16.611Z,16.80
2017-07-26T09:06:44.128Z,16.80
2017-07-26T09:09:11.647Z,16.80
2017-07-26T09:11:39.181Z,16.90
2017-07-26T09:14:06.724Z,16.90
2017-07-26T09:16:34.512Z,16.90
2017-07-26T09:19:02.027Z,16.90
2017-07-26T09:21:29.553Z,16.90
2017-07-26T09:23:57.099Z,16.90
2017-07-26T09:26:24.614Z,16.90
2017-07-26T09:28:52.450Z,17.00
2017-07-26T09:31:20.003Z,17.00
2017-07-26T09:33:47.543Z,17.10
2017-07-26T09:36:15.053Z,17.10
2017-07-26T09:38:42.553Z,17.00
2017-07-26T09:41:10.342Z,17.00
2017-07-26T09:43:37.859Z,17.00
2017-07-26T09:46:05.391Z,17.00
2017-07-26T09:48:32.928Z,17.00
2017-07-26T09:51:00.438Z,17.00
2017-07-26T09:53:28.919Z,17.00
2017-07-26T09:55:56.464Z,17.00
2017-07-26T09:58:23.983Z,17.00
2017-07-26T10:00:52.313Z,16.90
2017-07-26T10:03:19.842Z,16.90
2017-07-26T10:05:47.670Z,17.00
2017-07-26T10:08:15.165Z,17.00
2017-07-26T10:10:42.680Z,17.10
2017-07-26T10:13:10.208Z,17.10
2017-07-26T10:15:37.752Z,17.10
2017-07-26T10:18:05.531Z,17.10
2017-07-26T10:20:33.047Z,17.10
2017-07-26T10:23:00.569Z,17.20
2017-07-26T10:25:28.117Z,17.30
2017-07-26T10:27:55.625Z,17.20
2017-07-26T10:30:23.427Z,17.30
2017-07-26T10:32:50.934Z,17.30
2017-07-26T10:35:18.446Z,17.30
2017-07-26T10:37:45.970Z,17.30
2017-07-26T10:40:13.489Z,17.30
2017-07-26T10:42:41.293Z,17.30
2017-07-26T10:45:08.816Z,17.30
2017-07-26T10:47:36.357Z,17.30
2017-07-26T10:50:03.873Z,17.30
2017-07-26T10:52:31.404Z,17.30
2017-07-26T10:54:59.209Z,17.30
2017-07-26T10:57:26.733Z,17.30
2017-07-26T10:59:54.238Z,17.30
2017-07-26T11:02:21.787Z,17.40
2017-07-26T11:04:49.307Z,17.40
2017-07-26T11:07:17.105Z,17.30
2017-07-26T11:09:44.648Z,17.30
2017-07-26T11:12:12.187Z,17.30
2017-07-26T11:14:39.727Z,17.40
2017-07-26T11:17:07.250Z,17.40
2017-07-26T11:19:35.072Z,17.40
2017-07-26T11:22:02.584Z,17.40
2017-07-26T11:24:30.092Z,17.40
2017-07-26T11:26:57.623Z,17.30
2017-07-26T11:29:25.127Z,17.30
2017-07-26T11:31:52.655Z,17.30
2017-07-26T11:34:20.478Z,17.30
2017-07-26T11:36:48.004Z,17.30
2017-07-26T11:39:15.529Z,17.30
2017-07-26T11:41:43.315Z,17.30
2017-07-26T11:44:10.817Z,17.30
2017-07-26T11:46:38.335Z,17.30
2017-07-26T11:49:05.946Z,17.30
2017-07-26T11:51:33.481Z,17.30
2017-07-26T11:54:01.289Z,17.30
2017-07-26T11:56:28.810Z,17.40
2017-07-26T11:58:56.325Z,17.40
2017-07-26T12:01:23.867Z,17.40
2017-07-26T12:03:51.383Z,17.30
2017-07-26T12:06:19.217Z,17.30
2017-07-26T12:08:46.744Z,17.30
2017-07-26T12:11:14.274Z,17.20
2017-07-26T12:13:41.803Z,17.20
2017-07-26T12:16:09.343Z,17.30
2017-07-26T12:18:37.149Z,17.20
2017-07-26T12:21:04.700Z,17.10
2017-07-26T12:23:32.236Z,17.10
2017-07-26T12:25:59.777Z,17.20
2017-07-26T12:28:27.323Z,17.20
2017-07-26T12:30:55.103Z,17.10
2017-07-26T12:33:22.638Z,17.10
2017-07-26T12:35:50.152Z,17.10
2017-07-26T12:38:18.374Z,17.10
2017-07-26T12:40:45.883Z,17.10
2017-07-26T12:43:13.668Z,17.00
2017-07-26T12:45:41.204Z,17.00
2017-07-26T12:48:08.749Z,17.00
2017-07-26T12:50:36.278Z,17.00
2017-07-26T12:53:03.799Z,17.00
2017-07-26T12:55:31.590Z,17.00
2017-07-26T12:57:59.122Z,17.00
2017-07-26T13:00:26.639Z,16.90
2017-07-26T13:02:54.178Z,17.00
2017-07-26T13:05:21.697Z,16.90
2017-07-26T13:07:49.491Z,17.00
2017-07-26T13:10:17.019Z,16.90
2017-07-26T13:12:44.544Z,16.90
2017-07-26T13:15:12.093Z,16.90
2017-07-26T13:17:39.614Z,16.80
2017-07-26T13:20:07.422Z,16.90
2017-07-26T13:22:34.946Z,16.80
2017-07-26T13:25:02.453Z,16.80
2017-07-26T13:27:29.976Z,16.80
2017-07-26T13:44:32.525Z,16.80
2017-07-26T13:47:00.322Z,17.00
2017-07-26T13:49:27.856Z,16.90
2017-07-26T13:51:55.379Z,16.90
2017-07-26T13:54:22.908Z,16.90
2017-07-26T13:56:50.433Z,16.80
2017-07-26T13:59:18.314Z,16.80
2017-07-26T14:01:45.823Z,16.80
2017-07-26T14:04:13.352Z,16.80
2017-07-26T14:06:40.915Z,16.80
2017-07-26T14:09:08.457Z,16.80
2017-07-26T14:11:36.326Z,16.70
2017-07-26T14:14:03.856Z,16.80
2017-07-26T14:16:31.375Z,16.80
2017-07-26T14:18:59.290Z,16.70
2017-07-26T14:21:26.818Z,16.70
2017-07-26T14:23:54.343Z,16.70
2017-07-26T14:26:22.703Z,16.70
2017-07-26T14:28:50.237Z,16.70
2017-07-26T14:31:18.812Z,16.70
2017-07-26T14:33:47.116Z,16.70
2017-07-26T14:36:14.641Z,16.60
2017-07-26T14:38:42.967Z,16.70
2017-07-26T14:41:10.485Z,16.60
2017-07-26T14:43:39.075Z,16.60
2017-07-26T14:46:06.621Z,16.60
2017-07-26T14:48:34.151Z,16.60
2017-07-26T14:51:01.703Z,16.60
2017-07-26T14:53:29.228Z,16.60
2017-07-26T14:55:57.132Z,16.60
2017-07-26T14:58:24.689Z,16.50
2017-07-26T15:00:52.213Z,16.60
2017-07-26T15:03:19.739Z,16.50
2017-07-26T15:05:47.262Z,16.50
2017-07-26T15:08:15.061Z,16.50
2017-07-26T15:10:42.621Z,16.40
2017-07-26T15:13:10.176Z,16.40
2017-07-26T15:15:37.716Z,16.40
2017-07-26T15:18:05.296Z,16.40
2017-07-26T15:20:33.168Z,16.40
2017-07-26T15:23:00.700Z,16.30
2017-07-26T15:25:28.238Z,16.30
2017-07-26T15:27:55.775Z,16.30
2017-07-26T15:30:23.289Z,16.20
2017-07-26T15:32:51.149Z,16.30
2017-07-26T15:35:18.671Z,16.30
2017-07-26T15:37:46.206Z,16.20
2017-07-26T15:40:14.525Z,16.20
2017-07-26T15:42:42.075Z,16.20
2017-07-26T15:45:09.960Z,16.20
2017-07-26T15:47:37.478Z,16.20
2017-07-26T15:50:05.777Z,16.20
2017-07-26T15:52:33.302Z,16.20
2017-07-26T15:55:01.241Z,16.20
2017-07-26T15:57:29.359Z,16.30
2017-07-26T15:59:56.907Z,16.30
2017-07-26T16:02:25.210Z,16.30
2017-07-26T16:04:52.747Z,16.30
2017-07-26T16:07:21.055Z,16.30
2017-07-26T16:09:48.950Z,16.30
2017-07-26T16:12:16.489Z,16.30
2017-07-26T16:14:44.005Z,16.20
2017-07-26T16:17:12.029Z,16.30
2017-07-26T16:19:39.534Z,16.20
2017-07-26T16:22:07.352Z,16.20
2017-07-26T16:24:34.867Z,16.20
2017-07-26T16:27:03.171Z,16.20
2017-07-26T16:29:30.707Z,16.20
2017-07-26T16:31:59.000Z,16.20
2017-07-26T16:34:26.874Z,16.20
2017-07-26T16:36:54.392Z,16.20
2017-07-26T16:39:21.899Z,16.20
2017-07-26T16:41:49.431Z,16.20
2017-07-26T16:44:17.764Z,16.20
2017-07-26T16:46:45.563Z,16.20
2017-07-26T16:49:13.851Z,16.20
2017-07-26T16:51:41.386Z,16.20
2017-07-26T16:54:08.915Z,16.20
2017-07-26T16:56:36.479Z,16.10
2017-07-26T16:59:04.029Z,16.10
2017-07-26T17:01:31.896Z,16.10
2017-07-26T17:03:59.666Z,16.10
2017-07-26T17:06:27.186Z,16.10
2017-07-26T17:08:55.074Z,16.10
2017-07-26T17:11:22.599Z,16.10
2017-07-26T17:13:50.114Z,16.10
2017-07-26T17:16:17.642Z,16.10
2017-07-26T17:18:45.164Z,16.10
2017-07-26T17:21:12.984Z,16.10
2017-07-26T17:23:40.514Z,16.00
2017-07-26T17:26:08.086Z,16.00
2017-07-26T17:28:35.631Z,16.10
2017-07-26T17:31:03.955Z,16.10
2017-07-26T17:33:31.821Z,16.10
2017-07-26T17:35:59.338Z,16.10
2017-07-26T17:38:27.628Z,16.10
2017-07-26T17:40:55.171Z,16.10
2017-07-26T17:43:23.477Z,16.10
2017-07-26T17:45:52.127Z,16.10
2017-07-26T17:48:20.402Z,16.10
2017-07-26T17:50:47.932Z,16.00
2017-07-26T17:53:15.450Z,16.10
2017-07-26T17:55:42.968Z,16.00
2017-07-26T17:58:10.791Z,16.10
2017-07-26T18:00:38.799Z,16.10
2017-07-26T18:03:06.340Z,16.00
2017-07-26T18:05:34.816Z,16.00
2017-07-26T18:08:02.352Z,16.00
2017-07-26T18:10:30.181Z,15.90
2017-07-26T18:12:57.690Z,15.90
2017-07-26T18:15:25.228Z,15.90
2017-07-26T18:17:52.772Z,15.90
2017-07-26T18:20:21.049Z,15.80
2017-07-26T18:22:49.619Z,15.80
2017-07-26T18:25:17.238Z,15.80
2017-07-26T18:27:44.773Z,15.80
2017-07-26T18:30:12.312Z,15.80
2017-07-26T18:32:40.598Z,15.70
2017-07-26T18:35:08.496Z,15.70
2017-07-26T18:37:36.022Z,15.70
2017-07-26T18:40:03.552Z,15.70
2017-07-26T18:42:31.089Z,15.70
2017-07-26T18:44:58.900Z,15.70
2017-07-26T18:47:27.481Z,15.70
2017-07-26T18:49:55.769Z,15.70
2017-07-26T18:52:23.302Z,15.70
2017-07-26T18:54:50.842Z,15.70
2017-07-26T18:57:18.390Z,15.80
2017-07-26T18:59:46.567Z,15.80
2017-07-26T19:02:14.083Z,15.80
2017-07-26T19:04:41.617Z,15.90
2017-07-26T19:07:09.163Z,15.90
2017-07-26T19:09:36.701Z,15.90
2017-07-26T19:12:04.238Z,15.90
2017-07-26T19:14:31.776Z,16.00
2017-07-26T19:17:00.355Z,16.00
2017-07-26T19:19:27.915Z,16.00
2017-07-26T19:21:55.435Z,15.90
2017-07-26T19:24:22.969Z,15.90
2017-07-26T19:26:50.495Z,15.90
2017-07-26T19:29:18.336Z,15.90
2017-07-26T19:31:45.859Z,15.90
2017-07-26T19:34:13.379Z,15.90
2017-07-26T19:36:40.933Z,15.80
2017-07-26T19:39:09.258Z,15.80
2017-07-26T19:41:37.813Z,15.80
2017-07-26T19:44:05.336Z,15.80
2017-07-26T19:46:32.891Z,15.80
2017-07-26T19:49:00.447Z,15.80
2017-07-26T19:51:27.979Z,15.90
2017-07-26T19:53:56.472Z,15.90
2017-07-26T19:56:23.987Z,15.90
2017-07-26T19:58:51.520Z,16.00
2017-07-26T20:01:19.073Z,16.00
2017-07-26T20:03:46.594Z,16.00
2017-07-26T20:06:14.400Z,16.00
2017-07-26T20:08:41.934Z,16.10
2017-07-26T20:11:10.099Z,16.10
2017-07-26T20:13:37.637Z,16.10
2017-07-26T20:16:05.171Z,16.10
2017-07-26T20:18:33.010Z,16.20
2017-07-26T20:21:00.534Z,16.20
2017-07-26T20:23:28.058Z,16.20
2017-07-26T20:25:55.605Z,16.20
2017-07-26T20:28:23.129Z,16.20
2017-07-26T20:30:50.919Z,16.20
2017-07-26T20:33:19.366Z,16.20
2017-07-26T20:35:46.880Z,16.20
2017-07-26T20:38:14.436Z,16.20
2017-07-26T20:40:41.957Z,16.20
2017-07-26T20:43:09.829Z,16.20
2017-07-26T20:45:37.393Z,16.20
2017-07-26T20:48:05.291Z,16.20
2017-07-26T20:50:32.852Z,16.20
2017-07-26T20:53:00.379Z,16.20
2017-07-26T20:55:28.235Z,16.20
2017-07-26T20:57:55.770Z,16.20
2017-07-26T21:00:23.287Z,16.20
2017-07-26T21:02:50.816Z,16.20
2017-07-26T21:05:18.333Z,16.20
2017-07-26T21:07:46.141Z,16.10
2017-07-26T21:10:13.665Z,16.10
2017-07-26T21:12:41.174Z,16.10
2017-07-26T21:15:09.121Z,16.10
2017-07-26T21:17:36.650Z,16.10
2017-07-26T21:20:04.461Z,16.10
2017-07-26T21:22:32.305Z,16.10
2017-07-26T21:24:59.844Z,16.10
2017-07-26T21:27:27.365Z,16.10
2017-07-26T21:29:54.873Z,16.10
2017-07-26T21:32:22.743Z,16.10
2017-07-26T21:34:50.264Z,16.10
2017-07-26T21:37:17.778Z,16.10
2017-07-26T21:39:45.617Z,16.10
2017-07-26T21:42:13.160Z,16.10
2017-07-26T21:44:41.490Z,16.00
2017-07-26T21:47:09.546Z,16.00
2017-07-26T21:49:37.084Z,16.00
2017-07-26T21:52:04.615Z,16.00
2017-07-26T21:54:32.731Z,16.00
2017-07-26T21:57:00.290Z,16.00
2017-07-26T21:59:27.802Z,16.10
2017-07-26T22:01:55.634Z,16.00
2017-07-26T22:04:23.164Z,16.00
2017-07-26T22:06:50.670Z,16.00
2017-07-26T22:09:18.506Z,16.00
2017-07-26T22:11:46.019Z,16.00
2017-07-26T22:14:13.538Z,16.00
2017-07-26T22:16:41.440Z,16.00
2017-07-26T22:19:08.976Z,16.00
2017-07-26T22:21:36.500Z,15.90
2017-07-26T22:24:04.399Z,15.90
2017-07-26T22:26:31.917Z,15.90
2017-07-26T22:28:59.445Z,15.90
2017-07-26T22:31:27.307Z,15.90
2017-07-26T22:33:54.813Z,15.90
2017-07-26T22:36:22.336Z,15.90
2017-07-26T22:38:50.140Z,15.90
2017-07-26T22:41:17.656Z,15.90
2017-07-26T22:43:45.190Z,15.90
2017-07-26T22:46:13.029Z,15.90
2017-07-26T22:48:40.537Z,15.90
2017-07-26T22:51:08.048Z,15.90
2017-07-26T22:53:35.867Z,15.90
2017-07-26T22:56:03.404Z,15.90
2017-07-26T22:58:30.932Z,15.90
2017-07-26T23:00:58.812Z,15.90
2017-07-26T23:03:26.349Z,15.90
2017-07-26T23:05:53.874Z,15.90
2017-07-26T23:08:21.687Z,15.80
2017-07-26T23:10:49.231Z,15.80
2017-07-26T23:13:16.760Z,15.80
2017-07-26T23:15:44.573Z,15.80
2017-07-26T23:18:12.117Z,15.80
2017-07-26T23:20:39.633Z,15.80
2017-07-26T23:23:07.471Z,15.80
2017-07-26T23:25:35.013Z,15.80
2017-07-26T23:28:02.517Z,15.80
2017-07-26T23:30:30.346Z,15.80
2017-07-26T23:32:57.889Z,15.80
2017-07-26T23:35:25.416Z,15.80
2017-07-26T23:37:53.228Z,15.80
2017-07-26T23:40:20.744Z,15.80
2017-07-26T23:42:48.281Z,15.80
2017-07-26T23:45:16.110Z,15.80
2017-07-26T23:47:43.639Z,15.80
2017-07-26T23:50:11.913Z,15.80
2017-07-26T23:52:39.721Z,15.80
2017-07-26T23:55:07.242Z,15.80
2017-07-26T23:57:35.535Z,15.80
